createdAt,value
2022-08-08T00:00:52.039Z,12.25
2022-08-08T00:02:03.818Z,12.06
2022-08-08T00:04:03.738Z,12.43
2022-08-08T00:06:04.712Z,12.78
2022-08-08T00:08:06.163Z,12.69
2022-08-08T00:10:07.807Z,12.67
2022-08-08T00:12:10.565Z,12.8
2022-08-08T00:14:16.296Z,12.8
2022-08-08T00:16:11.745Z,12.93
2022-08-08T00:18:12.710Z,13.06
2022-08-08T00:20:14.930Z,13
2022-08-08T00:22:16.283Z,12.85
2022-08-08T00:24:18.182Z,12.69
2022-08-08T00:26:21.766Z,12.51
2022-08-08T00:28:34.824Z,12.33
2022-08-08T00:30:23.840Z,12.2
2022-08-08T00:32:33.121Z,12.14
2022-08-08T00:34:26.922Z,12.33
2022-08-08T00:36:26.070Z,12.36
2022-08-08T00:38:31.689Z,12.25
2022-08-08T00:41:08.555Z,12.21
2022-08-08T00:42:34.719Z,12.26
2022-08-08T00:44:32.405Z,12.33
2022-08-08T00:46:56.247Z,12.32
2022-08-08T00:48:35.618Z,12.35
2022-08-08T00:50:40.794Z,12.31
2022-08-08T00:52:39.980Z,12.23
2022-08-08T00:54:40.293Z,12.14
2022-08-08T00:56:42.121Z,12.25
2022-08-08T00:58:43.510Z,12.2
2022-08-08T01:00:44.657Z,12.15
2022-08-08T01:03:18.209Z,12.12
2022-08-08T01:04:47.335Z,12.1
2022-08-08T01:06:48.402Z,12.01
2022-08-08T01:08:51.790Z,11.91
2022-08-08T01:10:51.027Z,11.78
2022-08-08T01:14:53.860Z,11.59
2022-08-08T01:16:54.264Z,11.58
2022-08-08T01:18:55.845Z,11.56
2022-08-08T01:20:57.307Z,11.49
2022-08-08T01:22:59.124Z,11.52
2022-08-08T01:25:00.107Z,11.57
2022-08-08T01:27:01.613Z,11.52
2022-08-08T01:29:02.887Z,11.5
2022-08-08T01:31:05.874Z,11.59
2022-08-08T01:33:16.103Z,11.58
2022-08-08T01:35:11.005Z,11.47
2022-08-08T01:37:08.288Z,11.34
2022-08-08T01:39:18.489Z,11.32
2022-08-08T01:41:11.652Z,11.29
2022-08-08T01:43:12.658Z,11.17
2022-08-08T01:45:13.725Z,11.11
2022-08-08T01:48:15.135Z,11.18
2022-08-08T01:50:00.527Z,11.23
2022-08-08T01:52:04.662Z,11.35
2022-08-08T01:54:19.873Z,11.3
2022-08-08T01:56:26.475Z,11.3
2022-08-08T01:58:11.498Z,11.24
2022-08-08T02:00:07.197Z,11.2
2022-08-08T02:02:09.264Z,11.27
2022-08-08T02:04:10.294Z,11.18
2022-08-08T02:06:31.913Z,11.1
2022-08-08T02:08:13.364Z,11.11
2022-08-08T02:10:14.450Z,11.16
2022-08-08T02:12:15.883Z,11.06
2022-08-08T02:14:17.384Z,10.95
2022-08-08T02:16:20.679Z,10.98
2022-08-08T02:18:20.799Z,11.11
2022-08-08T02:21:00.287Z,11.18
2022-08-08T02:22:26.301Z,11.23
2022-08-08T02:24:24.941Z,11.23
2022-08-08T02:26:26.167Z,11.17
2022-08-08T02:28:35.236Z,11.01
2022-08-08T02:30:28.730Z,10.79
2022-08-08T02:32:30.319Z,10.74
2022-08-08T02:34:33.259Z,10.67
2022-08-08T02:36:33.634Z,10.64
2022-08-08T02:38:34.932Z,10.53
2022-08-08T02:40:36.397Z,10.43
2022-08-08T02:42:38.599Z,10.39
2022-08-08T02:44:45.660Z,10.29
2022-08-08T02:46:41.477Z,10.17
2022-08-08T02:48:40.893Z,10.05
2022-08-08T02:50:42.020Z,10.03
2022-08-08T02:52:43.476Z,10.21
2022-08-08T02:54:44.744Z,10.23
2022-08-08T02:56:46.472Z,10.27
2022-08-08T02:58:48.375Z,10.3
2022-08-08T03:00:50.600Z,10.4
2022-08-08T03:02:51.178Z,10.47
2022-08-08T03:05:01.821Z,10.51
2022-08-08T03:06:53.789Z,10.48
2022-08-08T03:08:55.580Z,10.45
2022-08-08T03:10:56.594Z,10.37
2022-08-08T03:13:01.296Z,10.28
2022-08-08T03:15:54.920Z,10.31
2022-08-08T03:17:00.299Z,10.41
2022-08-08T03:19:01.797Z,10.35
2022-08-08T03:21:09.869Z,10.31
2022-08-08T03:23:05.018Z,10.23
2022-08-08T03:25:09.397Z,10.13
2022-08-08T03:27:07.903Z,10.1
2022-08-08T03:29:15.117Z,10.1
2022-08-08T03:31:22.372Z,10.03
2022-08-08T03:33:54.178Z,10.11
2022-08-08T03:35:12.942Z,10.29
2022-08-08T03:37:20.331Z,10.34
2022-08-08T03:39:16.405Z,10.33
2022-08-08T03:41:22.983Z,10.36
2022-08-08T03:43:19.897Z,10.4
2022-08-08T03:46:03.944Z,10.32
2022-08-08T03:47:22.218Z,10.31
2022-08-08T03:49:56.970Z,10.23
2022-08-08T03:51:26.671Z,9.96
2022-08-08T03:53:38.300Z,9.8
2022-08-08T03:55:55.396Z,9.77
2022-08-08T03:58:32.494Z,9.84
2022-08-08T03:59:30.050Z,9.84
2022-08-08T04:02:02.301Z,9.81
2022-08-08T04:03:57.118Z,9.8
2022-08-08T04:05:35.195Z,9.77
2022-08-08T04:07:36.460Z,9.73
2022-08-08T04:09:59.187Z,9.62
2022-08-08T04:11:48.326Z,9.55
2022-08-08T04:14:02.828Z,9.53
2022-08-08T04:15:54.462Z,9.53
2022-08-08T04:17:45.907Z,9.52
2022-08-08T04:19:45.261Z,9.58
2022-08-08T04:21:46.792Z,9.69
2022-08-08T04:24:04.900Z,9.65
2022-08-08T04:25:49.990Z,9.6
2022-08-08T04:28:03.829Z,9.52
2022-08-08T04:29:55.520Z,9.41
2022-08-08T04:31:57.446Z,9.42
2022-08-08T04:33:55.208Z,9.44
2022-08-08T04:35:56.987Z,9.58
2022-08-08T04:37:58.907Z,9.71
2022-08-08T04:40:06.165Z,9.62
2022-08-08T04:42:02.155Z,9.6
2022-08-08T04:44:03.283Z,9.69
2022-08-08T04:46:04.867Z,9.83
2022-08-08T04:48:06.318Z,9.97
2022-08-08T04:50:08.245Z,10.26
2022-08-08T04:52:09.604Z,10.36
2022-08-08T04:54:27.700Z,10.43
2022-08-08T04:56:12.251Z,10.67
2022-08-08T04:58:13.970Z,11.21
2022-08-08T05:00:19.534Z,11.76
2022-08-08T05:02:20.155Z,11.39
2022-08-08T05:04:18.984Z,11.25
2022-08-08T05:06:25.449Z,11.49
2022-08-08T05:08:21.863Z,12.04
2022-08-08T05:10:23.060Z,12.13
2022-08-08T05:12:29.128Z,12.87
2022-08-08T05:14:25.858Z,13.14
2022-08-08T05:16:49.022Z,13.67
2022-08-08T05:18:28.675Z,14.33
2022-08-08T05:20:29.579Z,15.1
2022-08-08T05:22:30.641Z,15.39
2022-08-08T05:24:31.536Z,15.67
2022-08-08T05:26:32.672Z,15.78
2022-08-08T05:28:41.531Z,15.95
2022-08-08T05:30:35.840Z,15.43
2022-08-08T05:32:37.974Z,14.97
2022-08-08T05:34:39.239Z,14.41
2022-08-08T05:36:41.030Z,14.5
2022-08-08T05:38:41.593Z,14.13
2022-08-08T05:40:42.918Z,14.03
2022-08-08T05:42:44.296Z,14.03
2022-08-08T05:44:46.260Z,14.08
2022-08-08T05:46:47.478Z,14.96
2022-08-08T05:48:50.025Z,15.59
2022-08-08T05:50:49.163Z,15.01
2022-08-08T05:52:50.143Z,14.73
2022-08-08T05:54:53.642Z,15.29
2022-08-08T05:56:52.813Z,15.2
2022-08-08T05:58:58.102Z,15.46
2022-08-08T06:00:56.926Z,15.57
2022-08-08T06:02:56.224Z,16.06
2022-08-08T06:04:57.438Z,16.02
2022-08-08T06:07:00.015Z,15.56
2022-08-08T06:09:00.351Z,15.83
2022-08-08T06:11:00.351Z,16.28
2022-08-08T06:13:01.690Z,15.76
2022-08-08T06:15:03.739Z,16.2
2022-08-08T06:17:04.669Z,16.05
2022-08-08T06:19:07.199Z,15.96
2022-08-08T06:21:11.415Z,15.78
2022-08-08T06:23:08.607Z,15.78
2022-08-08T06:25:10.481Z,16.15
2022-08-08T06:27:11.515Z,16.77
2022-08-08T06:29:27.079Z,16.91
2022-08-08T06:31:15.534Z,16.34
2022-08-08T06:33:15.737Z,16.44
2022-08-08T06:36:05.009Z,16.85
2022-08-08T06:37:24.681Z,16.66
2022-08-08T06:39:19.927Z,16.43
2022-08-08T06:41:21.264Z,16.8
2022-08-08T06:43:28.345Z,16.66
2022-08-08T06:45:25.103Z,17.11
2022-08-08T06:47:31.676Z,17.41
2022-08-08T06:49:54.659Z,17.44
2022-08-08T06:51:31.140Z,17.78
2022-08-08T06:53:39.025Z,18.13
2022-08-08T06:55:37.561Z,18.18
2022-08-08T06:57:44.436Z,18.35
2022-08-08T06:59:35.299Z,18.38
2022-08-08T07:02:18.539Z,18.56
2022-08-08T07:03:51.760Z,19.34
2022-08-08T07:05:40.119Z,19.66
2022-08-08T07:07:40.584Z,19.99
2022-08-08T07:09:45.821Z,19.92
2022-08-08T07:11:46.377Z,19.43
2022-08-08T07:14:00.162Z,19.65
2022-08-08T07:16:04.109Z,20.03
2022-08-08T07:18:00.733Z,19.84
2022-08-08T07:19:49.193Z,20.27
2022-08-08T07:21:50.761Z,20.31
2022-08-08T07:23:57.884Z,20.67
2022-08-08T07:25:54.100Z,20.78
2022-08-08T07:28:00.734Z,20.79
2022-08-08T07:30:00.792Z,21
2022-08-08T07:31:56.695Z,20.85
2022-08-08T07:33:59.273Z,21.43
2022-08-08T07:35:59.146Z,22.05
2022-08-08T07:38:05.229Z,22.32
2022-08-08T07:40:01.913Z,22.78
2022-08-08T07:42:04.731Z,22.74
2022-08-08T07:44:07.063Z,22.76
2022-08-08T07:46:06.015Z,23.16
2022-08-08T07:48:05.468Z,23.34
2022-08-08T07:50:07.250Z,23.61
2022-08-08T07:52:08.370Z,23.56
2022-08-08T07:54:10.819Z,23.36
2022-08-08T07:56:12.009Z,23.59
2022-08-08T07:58:12.961Z,23.24
2022-08-08T08:00:16.496Z,23.82
2022-08-08T08:02:34.231Z,24
2022-08-08T08:04:16.108Z,23.5
2022-08-08T08:06:16.984Z,24.45
2022-08-08T08:10:30.121Z,24.06
2022-08-08T08:12:31.312Z,24.52
2022-08-08T08:14:22.408Z,24.37
2022-08-08T08:16:23.641Z,24.34
2022-08-08T08:18:27.443Z,23.84
2022-08-08T08:20:29.674Z,23.9
2022-08-08T08:22:31.602Z,24.06
2022-08-08T08:24:31.030Z,24.04
2022-08-08T08:26:30.326Z,24.23
2022-08-08T08:28:31.860Z,24.39
2022-08-08T08:30:32.768Z,24.9
2022-08-08T08:31:17.438Z,24.78
2022-08-08T08:33:17.546Z,24.54
2022-08-08T08:35:21.596Z,25.16
2022-08-08T08:37:20.780Z,24.75
2022-08-08T08:39:22.833Z,25.06
2022-08-08T08:41:24.025Z,24.93
2022-08-08T08:43:27.027Z,25.62
2022-08-08T08:45:26.963Z,25.61
2022-08-08T08:47:28.279Z,25.94
2022-08-08T08:49:33.645Z,25.48
2022-08-08T08:51:30.630Z,26.03
2022-08-08T08:53:55.630Z,26.13
2022-08-08T08:55:39.168Z,26.73
2022-08-08T08:57:34.487Z,26.17
2022-08-08T08:59:59.195Z,26.25
2022-08-08T09:01:36.110Z,25.83
2022-08-08T09:03:45.746Z,26.17
2022-08-08T09:05:49.013Z,26.33
2022-08-08T09:07:52.087Z,26
2022-08-08T09:09:47.600Z,26.14
2022-08-08T09:11:47.168Z,26.02
2022-08-08T09:13:43.375Z,26.33
2022-08-08T09:15:45.018Z,26.47
2022-08-08T09:17:52.154Z,26.19
2022-08-08T09:21:55.173Z,26.49
2022-08-08T09:21:55.926Z,26.28
2022-08-08T09:23:50.255Z,27
2022-08-08T09:25:55.141Z,26.25
2022-08-08T09:27:56.602Z,26.84
2022-08-08T09:29:55.590Z,26.83
2022-08-08T09:31:56.269Z,26.79
2022-08-08T09:34:15.673Z,26.43
2022-08-08T09:35:58.069Z,26.9
2022-08-08T09:38:01.341Z,26.57
2022-08-08T09:40:00.741Z,26.53
2022-08-08T09:42:14.816Z,26.91
2022-08-08T09:44:04.846Z,27.14
2022-08-08T09:46:04.107Z,26.99
2022-08-08T09:48:12.769Z,26.75
2022-08-08T09:50:08.717Z,27.21
2022-08-08T09:52:08.580Z,26.77
2022-08-08T09:54:15.462Z,27.47
2022-08-08T09:56:12.555Z,27.37
2022-08-08T09:58:12.770Z,26.92
2022-08-08T10:00:34.467Z,27.08
2022-08-08T10:02:14.881Z,26.51
2022-08-08T10:04:22.444Z,26.58
2022-08-08T10:06:17.817Z,26.76
2022-08-08T10:08:29.158Z,27.26
2022-08-08T10:10:20.425Z,26.56
2022-08-08T10:12:22.633Z,26.89
2022-08-08T10:14:27.893Z,27.33
2022-08-08T10:16:24.796Z,27.43
2022-08-08T10:18:26.583Z,27.36
2022-08-08T10:20:40.345Z,27.5
2022-08-08T10:22:28.971Z,27.28
2022-08-08T10:24:35.057Z,27.06
2022-08-08T10:26:52.578Z,27.2
2022-08-08T10:28:32.239Z,27.38
2022-08-08T10:30:57.571Z,27.32
2022-08-08T10:32:35.692Z,28.04
2022-08-08T10:34:36.130Z,27.6
2022-08-08T10:36:37.027Z,27.13
2022-08-08T10:38:38.253Z,27.79
2022-08-08T10:40:39.922Z,28.08
2022-08-08T10:42:43.609Z,27.58
2022-08-08T10:44:42.731Z,28.17
2022-08-08T10:46:44.436Z,27.97
2022-08-08T10:48:56.319Z,27.47
2022-08-08T10:50:46.925Z,27.45
2022-08-08T10:52:48.621Z,27.39
2022-08-08T10:54:49.973Z,27.39
2022-08-08T10:56:50.833Z,27.16
2022-08-08T10:58:54.755Z,27.82
2022-08-08T11:01:03.073Z,27.8
2022-08-08T11:02:55.257Z,28.37
2022-08-08T11:04:56.325Z,27.06
2022-08-08T11:06:57.196Z,27.45
2022-08-08T11:08:58.248Z,27.97
2022-08-08T11:10:59.442Z,28.39
2022-08-08T11:13:18.930Z,28.16
2022-08-08T11:15:01.823Z,28.09
2022-08-08T11:17:02.859Z,28.48
2022-08-08T11:19:04.144Z,28.37
2022-08-08T11:21:09.180Z,28.11
2022-08-08T11:23:06.538Z,28.07
2022-08-08T11:25:13.653Z,28.39
2022-08-08T11:27:37.182Z,28.69
2022-08-08T11:29:10.830Z,28.41
2022-08-08T11:31:11.926Z,28.11
2022-08-08T11:33:13.076Z,28.53
2022-08-08T11:35:24.798Z,27.63
2022-08-08T11:37:16.093Z,27.52
2022-08-08T11:39:17.413Z,28.09
2022-08-08T11:41:18.443Z,28.53
2022-08-08T11:43:19.717Z,28.57
2022-08-08T11:45:20.961Z,28.8
2022-08-08T11:47:22.456Z,29.13
2022-08-08T11:49:23.803Z,28.53
2022-08-08T11:51:29.370Z,29.33
2022-08-08T11:53:26.533Z,28.36
2022-08-08T11:55:28.602Z,28.7
2022-08-08T11:57:30.316Z,29.3
2022-08-08T11:59:58.090Z,29.57
2022-08-08T12:01:31.628Z,29.39
2022-08-08T12:03:33.171Z,28.96
2022-08-08T12:05:34.503Z,29.63
2022-08-08T12:07:35.724Z,29.69
2022-08-08T12:09:56.580Z,28.56
2022-08-08T12:11:38.626Z,29.17
2022-08-08T12:14:03.289Z,28.31
2022-08-08T12:15:43.153Z,28.21
2022-08-08T12:17:50.811Z,28.48
2022-08-08T12:19:51.422Z,28.78
2022-08-08T12:21:58.828Z,29.21
2022-08-08T12:23:58.338Z,29.35
2022-08-08T12:25:52.578Z,29.68
2022-08-08T12:27:47.982Z,29.85
2022-08-08T12:29:49.006Z,29.86
2022-08-08T12:31:53.395Z,29.07
2022-08-08T12:34:01.741Z,28.8
2022-08-08T12:35:53.198Z,28.83
2022-08-08T12:38:01.716Z,29.61
2022-08-08T12:39:58.232Z,29.66
2022-08-08T12:41:57.622Z,29.47
2022-08-08T12:44:00.242Z,28.81
2022-08-08T12:46:02.885Z,29.44
2022-08-08T12:48:05.085Z,30.03
2022-08-08T12:50:01.934Z,28.92
2022-08-08T12:52:02.981Z,29.35
2022-08-08T12:54:04.773Z,29.81
2022-08-08T12:56:08.582Z,29.89
2022-08-08T12:58:07.314Z,29.87
2022-08-08T13:00:12.348Z,30.1
2022-08-08T13:02:09.960Z,30.56
2022-08-08T13:04:11.573Z,31.17
2022-08-08T13:08:14.002Z,30.25
2022-08-08T13:10:15.152Z,29.48
2022-08-08T13:12:18.192Z,29.2
2022-08-08T13:14:17.310Z,28.78
2022-08-08T13:16:18.835Z,28.98
2022-08-08T13:18:24.786Z,28.96
2022-08-08T13:20:21.217Z,28.59
2022-08-08T13:22:24.484Z,28.91
2022-08-08T13:24:39.647Z,29.25
2022-08-08T13:26:25.188Z,29.57
2022-08-08T13:28:26.863Z,29.93
2022-08-08T13:30:28.435Z,29.31
2022-08-08T13:32:29.319Z,29.34
2022-08-08T13:34:33.173Z,29.86
2022-08-08T13:36:31.029Z,29.68
2022-08-08T13:38:32.111Z,29.79
2022-08-08T13:40:34.243Z,30.39
2022-08-08T13:42:35.035Z,29.91
2022-08-08T13:44:35.782Z,30.31
2022-08-08T13:46:37.468Z,30.37
2022-08-08T13:48:38.289Z,31.24
2022-08-08T13:50:44.143Z,31.09
2022-08-08T13:52:40.784Z,31.71
2022-08-08T13:54:44.496Z,30.77
2022-08-08T13:56:44.991Z,30.27
2022-08-08T13:58:43.622Z,29.48
2022-08-08T14:00:45.837Z,30.24
2022-08-08T14:02:46.192Z,29.88
2022-08-08T14:04:47.068Z,29.55
2022-08-08T14:06:47.864Z,30.3
2022-08-08T14:08:49.192Z,29.63
2022-08-08T14:10:50.004Z,30.58
2022-08-08T14:12:51.090Z,30.37
2022-08-08T14:14:52.271Z,30.2
2022-08-08T14:16:53.227Z,29.76
2022-08-08T14:18:54.734Z,29.39
2022-08-08T14:20:57.156Z,29.95
2022-08-08T14:22:56.487Z,29.51
2022-08-08T14:24:58.823Z,29.2
2022-08-08T14:26:58.811Z,29.9
2022-08-08T14:29:00.266Z,29.94
2022-08-08T14:31:01.349Z,29.21
2022-08-08T14:33:02.719Z,29.06
2022-08-08T14:35:04.385Z,30.02
2022-08-08T14:37:05.074Z,29.39
2022-08-08T14:39:11.364Z,29.31
2022-08-08T14:41:07.719Z,29.87
2022-08-08T14:43:22.382Z,30.33
2022-08-08T14:45:10.327Z,29.61
2022-08-08T14:47:16.609Z,30.79
2022-08-08T14:49:20.243Z,30.09
2022-08-08T14:51:17.780Z,30.44
2022-08-08T14:53:14.623Z,29.9
2022-08-08T14:55:16.513Z,29.55
2022-08-08T14:57:17.700Z,30.4
2022-08-08T14:59:22.709Z,29.93
2022-08-08T15:01:23.598Z,29.59
2022-08-08T15:03:20.942Z,30.1
2022-08-08T15:05:22.415Z,29.68
2022-08-08T15:07:24.146Z,29.76
2022-08-08T15:09:23.826Z,29.48
2022-08-08T15:11:25.503Z,29.99
2022-08-08T15:13:26.823Z,30.04
2022-08-08T15:16:01.079Z,31.06
2022-08-08T15:16:38.846Z,30.69
2022-08-08T15:18:40.015Z,30.31
2022-08-08T15:20:40.719Z,29.39
2022-08-08T15:22:41.818Z,30
2022-08-08T15:24:43.558Z,29.8
2022-08-08T15:26:46.870Z,29.56
2022-08-08T15:28:46.030Z,29.68
2022-08-08T15:30:48.779Z,29.71
2022-08-08T15:32:48.820Z,29.54
2022-08-08T15:34:49.769Z,29.03
2022-08-08T15:36:51.522Z,29.3
2022-08-08T15:38:52.845Z,29.61
2022-08-08T15:40:53.697Z,29.73
2022-08-08T15:42:54.701Z,29.45
2022-08-08T15:44:55.975Z,29.43
2022-08-08T15:46:57.195Z,28.98
2022-08-08T15:48:58.145Z,28.86
2022-08-08T15:50:59.318Z,29.56
2022-08-08T15:53:00.150Z,29.32
2022-08-08T15:55:01.714Z,29.34
2022-08-08T15:57:03.000Z,29.07
2022-08-08T15:59:03.916Z,29.01
2022-08-08T16:01:05.130Z,29.26
2022-08-08T16:03:06.401Z,29.2
2022-08-08T16:05:09.379Z,29.59
2022-08-08T16:07:08.909Z,30.03
2022-08-08T16:13:06.085Z,29.1
2022-08-08T16:13:06.484Z,29.24
2022-08-08T16:13:26.181Z,29.34
2022-08-08T16:15:14.598Z,29.55
2022-08-08T16:17:15.566Z,29.54
2022-08-08T16:19:19.320Z,29.77
2022-08-08T16:21:20.921Z,29.72
2022-08-08T16:23:19.043Z,29.75
2022-08-08T16:25:20.032Z,29.57
2022-08-08T16:27:21.732Z,29.2
2022-08-08T16:29:23.742Z,29.16
2022-08-08T16:31:24.927Z,29.46
2022-08-08T16:33:29.885Z,28.97
2022-08-08T16:35:26.712Z,29.22
2022-08-08T16:37:27.766Z,29.15
2022-08-08T16:40:01.662Z,29.04
2022-08-08T16:41:29.902Z,28.82
2022-08-08T16:43:42.016Z,29.1
2022-08-08T16:46:35.772Z,28.6
2022-08-08T16:47:40.762Z,29.12
2022-08-08T16:49:36.246Z,29.22
2022-08-08T16:54:57.933Z,29.21
2022-08-08T16:54:58.978Z,29.36
2022-08-08T16:55:54.657Z,29.46
2022-08-08T16:58:12.918Z,28.85
2022-08-08T16:59:46.588Z,28.67
2022-08-08T17:01:40.624Z,28.61
2022-08-08T17:03:57.839Z,28.54
2022-08-08T17:05:45.186Z,28.08
2022-08-08T17:07:46.869Z,28.46
2022-08-08T17:09:45.694Z,28.51
2022-08-08T17:11:48.322Z,28.33
2022-08-08T17:13:50.433Z,28.17
2022-08-08T17:15:52.413Z,27.97
2022-08-08T17:18:01.798Z,28.19
2022-08-08T17:19:51.970Z,28.22
2022-08-08T17:21:53.525Z,28.31
2022-08-08T17:23:58.778Z,28.22
2022-08-08T17:25:56.562Z,28.07
2022-08-08T17:27:58.666Z,27.7
2022-08-08T17:29:58.637Z,27.52
2022-08-08T17:31:59.859Z,27.34
2022-08-08T17:34:38.495Z,27.27
2022-08-08T17:36:09.206Z,27.14
2022-08-08T17:38:04.641Z,26.97
2022-08-08T17:40:11.110Z,26.86
2022-08-08T17:42:07.552Z,26.86
2022-08-08T17:44:08.338Z,26.81
2022-08-08T17:46:09.739Z,26.61
2022-08-08T17:48:14.707Z,26.61
2022-08-08T17:50:11.679Z,26.51
2022-08-08T17:52:13.046Z,26.4
2022-08-08T17:54:22.101Z,26.29
2022-08-08T17:56:16.041Z,26.17
2022-08-08T17:58:17.552Z,26.16
2022-08-08T18:00:21.747Z,26.17
2022-08-08T18:02:21.386Z,26
2022-08-08T18:04:28.770Z,25.9
2022-08-08T18:06:23.968Z,25.84
2022-08-08T18:08:38.437Z,25.89
2022-08-08T18:10:31.153Z,25.8
2022-08-08T18:12:27.525Z,25.75
2022-08-08T18:14:28.867Z,25.56
2022-08-08T18:16:31.090Z,25.45
2022-08-08T18:18:33.973Z,25.41
2022-08-08T18:20:37.640Z,25.21
2022-08-08T18:22:50.488Z,25.02
2022-08-08T18:24:36.120Z,24.84
2022-08-08T18:26:37.812Z,24.71
2022-08-08T18:28:39.101Z,25.17
2022-08-08T18:32:42.062Z,24.88
2022-08-08T18:34:42.823Z,24.86
2022-08-08T18:36:44.420Z,24.83
2022-08-08T18:38:45.001Z,24.7
2022-08-08T18:40:46.673Z,24.67
2022-08-08T18:42:50.325Z,24.5
2022-08-08T18:44:52.933Z,24.36
2022-08-08T18:46:53.614Z,24.45
2022-08-08T18:48:52.643Z,24.56
2022-08-08T18:50:58.439Z,24.52
2022-08-08T18:52:55.131Z,24.36
2022-08-08T18:54:59.096Z,24.22
2022-08-08T18:56:58.246Z,24.08
2022-08-08T18:58:59.720Z,23.95
2022-08-08T19:01:00.916Z,23.83
2022-08-08T19:03:04.067Z,23.76
2022-08-08T19:05:05.270Z,23.67
2022-08-08T19:07:05.035Z,23.52
2022-08-08T19:09:12.926Z,23.39
2022-08-08T19:11:09.245Z,23.26
2022-08-08T19:13:10.830Z,23.09
2022-08-08T19:15:10.489Z,22.95
2022-08-08T19:17:11.397Z,22.75
2022-08-08T19:19:13.573Z,22.59
2022-08-08T19:21:22.867Z,22.72
2022-08-08T19:23:16.671Z,22.57
2022-08-08T19:25:29.512Z,22.34
2022-08-08T19:27:18.882Z,22.28
2022-08-08T19:29:20.741Z,22.18
2022-08-08T19:31:22.718Z,22.04
2022-08-08T19:33:24.438Z,22.03
2022-08-08T19:35:25.555Z,22
2022-08-08T19:37:41.822Z,22.03
2022-08-08T19:39:30.981Z,22.1
2022-08-08T19:41:29.195Z,22.05
2022-08-08T19:43:30.739Z,21.99
2022-08-08T19:45:58.029Z,21.79
2022-08-08T19:47:33.823Z,21.52
2022-08-08T19:49:36.670Z,21.43
2022-08-08T19:51:39.668Z,21.36
2022-08-08T19:53:38.055Z,21.29
2022-08-08T19:55:38.176Z,21.15
2022-08-08T19:57:39.451Z,21.08
2022-08-08T19:59:40.605Z,20.93
2022-08-08T20:01:50.575Z,20.8
2022-08-08T20:04:00.740Z,20.83
2022-08-08T20:06:15.714Z,20.79
2022-08-08T20:08:27.601Z,20.66
2022-08-08T20:09:55.522Z,20.48
2022-08-08T20:11:47.795Z,20.35
2022-08-08T20:14:13.553Z,20.31
2022-08-08T20:15:52.826Z,20.27
2022-08-08T20:17:51.828Z,20.08
2022-08-08T20:19:52.851Z,20.02
2022-08-08T20:21:53.838Z,19.98
2022-08-08T20:23:57.815Z,19.86
2022-08-08T20:25:55.956Z,19.91
2022-08-08T20:27:57.056Z,20.11
2022-08-08T20:30:00.713Z,20.19
2022-08-08T20:32:08.318Z,20.07
2022-08-08T20:34:02.012Z,19.88
2022-08-08T20:36:03.582Z,19.71
2022-08-08T20:38:03.573Z,19.63
2022-08-08T20:40:04.883Z,19.65
2022-08-08T20:42:06.616Z,19.51
2022-08-08T20:44:07.749Z,19.36
2022-08-08T20:46:09.181Z,19.25
2022-08-08T20:48:10.403Z,19.2
2022-08-08T20:50:11.494Z,19.12
2022-08-08T20:52:12.444Z,19.07
2022-08-08T20:54:15.692Z,18.92
2022-08-08T20:56:15.001Z,18.78
2022-08-08T20:58:20.398Z,18.63
2022-08-08T21:00:18.326Z,18.85
2022-08-08T21:02:25.516Z,18.74
2022-08-08T21:04:20.885Z,18.25
2022-08-08T21:06:22.788Z,18.1
2022-08-08T21:08:34.570Z,18.17
2022-08-08T21:10:28.184Z,18.23
2022-08-08T21:12:32.312Z,18.25
2022-08-08T21:14:30.120Z,18.33
2022-08-08T21:16:30.338Z,18.5
2022-08-08T21:18:31.683Z,18.75
2022-08-08T21:20:34.313Z,18.8
2022-08-08T21:22:34.237Z,18.34
2022-08-08T21:24:35.316Z,18.41
2022-08-08T21:26:36.517Z,18.54
2022-08-08T21:28:38.051Z,18.28
2022-08-08T21:30:39.603Z,18.05
2022-08-08T21:32:41.317Z,17.96
2022-08-08T21:34:42.505Z,17.8
2022-08-08T21:36:44.252Z,17.61
2022-08-08T21:38:45.392Z,17.75
2022-08-08T21:40:55.352Z,17.62
2022-08-08T21:42:48.608Z,17.68
2022-08-08T21:44:58.288Z,17.54
2022-08-08T21:48:03.331Z,17.49
2022-08-08T21:48:53.422Z,17.42
2022-08-08T21:50:53.715Z,17.32
2022-08-08T21:54:19.498Z,17.27
2022-08-08T21:55:01.515Z,17.19
2022-08-08T21:56:59.250Z,17.1
2022-08-08T21:58:59.909Z,17.26
2022-08-08T22:01:02.423Z,17.3
2022-08-08T22:01:45.137Z,17.3
2022-08-08T22:03:49.948Z,17.21
2022-08-08T22:05:48.462Z,17.13
2022-08-08T22:07:49.176Z,17.02
2022-08-08T22:09:59.549Z,16.83
2022-08-08T22:12:03.245Z,16.76
2022-08-08T22:13:53.509Z,16.62
2022-08-08T22:15:58.293Z,16.58
2022-08-08T22:17:55.702Z,16.59
2022-08-08T22:20:11.751Z,16.62
2022-08-08T22:21:58.752Z,16.52
2022-08-08T22:23:59.807Z,16.49
2022-08-08T22:26:20.185Z,16.4
2022-08-08T22:28:04.862Z,16.28
2022-08-08T22:30:04.130Z,16.23
2022-08-08T22:32:05.222Z,16.24
2022-08-08T22:34:11.574Z,16.09
2022-08-08T22:36:12.207Z,15.93
2022-08-08T22:38:09.235Z,16.01
2022-08-08T22:40:11.955Z,16.11
2022-08-08T22:42:12.563Z,16.24
2022-08-08T22:44:13.547Z,16.2
2022-08-08T22:46:14.921Z,16.07
2022-08-08T22:48:16.355Z,15.93
2022-08-08T22:50:26.667Z,15.87
2022-08-08T22:52:19.432Z,15.83
2022-08-08T22:54:28.756Z,15.81
2022-08-08T22:56:23.107Z,15.8
2022-08-08T22:58:27.036Z,15.93
2022-08-08T23:00:25.693Z,16.13
2022-08-08T23:02:27.052Z,15.99
2022-08-08T23:04:32.173Z,15.83
2022-08-08T23:06:29.199Z,15.8
2022-08-08T23:08:35.498Z,15.61
2022-08-08T23:10:32.366Z,15.48
2022-08-08T23:12:40.783Z,15.42
2022-08-08T23:14:35.238Z,15.47
2022-08-08T23:16:42.426Z,15.51
2022-08-08T23:18:38.761Z,15.4
2022-08-08T23:20:40.018Z,15.43
2022-08-08T23:22:41.201Z,15.33
2022-08-08T23:24:42.686Z,15.19
2022-08-08T23:26:44.355Z,15.19
2022-08-08T23:30:46.980Z,14.97
2022-08-08T23:32:48.690Z,14.84
2022-08-08T23:34:58.627Z,14.81
2022-08-08T23:36:51.792Z,14.7
2022-08-08T23:38:52.909Z,14.59
2022-08-08T23:40:54.468Z,14.78
2022-08-08T23:42:55.601Z,14.74
2022-08-08T23:44:56.868Z,14.85
2022-08-08T23:48:59.063Z,14.83
2022-08-08T23:51:01.184Z,15.02
2022-08-08T23:53:03.413Z,15.08
2022-08-08T23:55:07.496Z,15.05
2022-08-08T23:57:15.167Z,15.05
2022-08-08T23:59:16.719Z,15.09
